• Join FlightAware (Why Join?)
  • Login
  • US Flag 
10:40AM EDT


 

Airport Tracker/Info


-or-


 

Live Flight TrackerFlight Track Log ✈ N173DS ✈ 26-Dec-2013 ✈ KNEW - KTPA

Flight Track Log - Related Links

Times and Time Zones

All times are in EST time to prevent confusion due to time zone crossing. See the N173DS flight status page for this flight to view local times or setup timezone preferences in your user account.

Time Position Orientation Groundspeed Altitude Reporting Facility
EST Latitude Longitude Course Direction KTS MPH feet Rate Location/Type
03:17PM 30.1111 -90.0297 359° North 193 222 2,000  Level Houston Center
03:17PM 30.1256 -90.0119 47° Northeast 214 246 2,800 2,520 Climbing Houston Center
03:18PM 30.0942 -89.9644 127° Southeast 233 268 5,600 2,460 Climbing Houston Center
03:20PM 30.0211 -89.9528 172° South 259 298 8,000 2,520 Climbing Houston Center
03:21PM 29.9439 -89.9342 168° South 276 318 10,900 2,460 Climbing Houston Center
03:22PM 29.8522 -89.9125 168° South 323 372 13,200 3,360 Climbing Houston Center
03:23PM 29.7386 -89.8611 159° South 381 438 17,900 3,900 Climbing Houston Center
03:24PM 29.6669 -89.7644 130° Southeast 401 461 21,300 3,000 Climbing Houston Center
03:25PM 29.5886 -89.6581 130° Southeast 425 489 24,200 2,940 Climbing Houston Center
03:26PM 29.5092 -89.5472 129° Southeast 444 511 27,400 2,520 Climbing Houston Center
03:27PM 29.4281 -89.4375 130° Southeast 451 519 29,500 2,640 Climbing Houston Center
03:28PM 29.3319 -89.3061 130° Southeast 450 518 33,000 2,820 Climbing Houston Center
03:29PM 29.2528 -89.2000 131° Southeast 442 509 35,400 2,100 Climbing Houston Center
03:30PM 29.1906 -89.0794 121° Southeast 445 512 37,400 1,560 Climbing Houston Center
03:31PM 29.1472 -88.9392 109° East 464 534 38,700 1,080 Climbing Houston Center
03:32PM 29.1011 -88.7975 110° East 475 547 39,700 1,020 Climbing Houston Center
03:33PM 29.0539 -88.6567 111° Southeast 476 548 40,900 600 Climbing Houston Center
03:34PM 28.9972 -88.4814 110° East 489 563 41,000  Climbing Houston Center
03:35PM 28.9467 -88.3308 111° Southeast 506 582 41,000  Level Houston Center
03:36PM 28.8978 -88.1797 110° East 508 585 41,000  Level Houston Center
03:37PM 28.8461 -88.0283 111° Southeast 503 579 41,000  Level Houston Center
03:38PM 28.7981 -87.8800 110° East 500 575 41,000  Level Houston Center
03:39PM 28.7694 -87.7200 101° East 516 594 41,000  Level Houston Center
03:40PM 28.7364 -87.5278 101° East 519 597 41,000  Level Houston Center
03:41PM 28.7092 -87.3681 101° East 516 594 41,000  Level Houston Center
03:42PM 28.6811 -87.2072 101° East 519 597 41,000  Level Houston Center
03:43PM 28.6542 -87.0456 101° East 520 598 41,000  Level Houston Center
03:44PM 28.6250 -86.8842 102° East 523 602 41,000  Level Houston Center
03:45PM 28.5914 -86.6892 101° East 527 606 41,000  Level Houston Center
03:46PM 28.5622 -86.5272 102° East 526 605 41,000  Level Houston Center
03:48PM 28.5256 -86.3303 102° East 522 601 41,000  Level Jacksonville Center
03:49PM 28.4983 -86.1758 101° East 530 610 41,000  Level Jacksonville Center
03:50PM 28.4669 -86.0094 102° East 529 609 41,000 -300 Level Jacksonville Center
03:51PM 28.4372 -85.8481 102° East 522 601 40,400 -1,140 Descending Jacksonville Center
03:52PM 28.4075 -85.6892 102° East 527 606 38,800 -1,800 Descending Jacksonville Center
03:53PM 28.3758 -85.5136 102° East 534 615 36,900 -1,860 Descending Jacksonville Center
03:54PM 28.3453 -85.3619 103° East 527 606 35,100 -1,800 Descending Jacksonville Center
03:55PM 28.3169 -85.2008 101° East 515 593 33,300 -1,980 Descending Jacksonville Center
03:58PM 28.2233 -84.7094 102° East 515 593 27,100 -2,040 Descending Miami Center
03:59PM 28.1944 -84.5497 102° East 504 580 25,100 -1,080 Descending Miami Center
04:00PM 28.1611 -84.3922 103° East 516 594 25,000 -900 Descending Miami Center
04:01PM 28.1317 -84.2397 102° East 516 594 23,400 -1,800 Descending Miami Center
04:02PM 28.1017 -84.0897 103° East 496 571 21,500 -2,040 Descending Miami Center
04:03PM 28.0672 -83.9467 105° East 483 556 19,400 -1,800 Descending Miami Center
04:04PM 28.0408 -83.8064 102° East 471 542 17,900 -1,620 Descending Miami Center
04:05PM 28.0161 -83.6686 101° East 450 518 16,200 -1,740 Descending Miami Center
04:06PM 27.9908 -83.5403 103° East 436 502 14,500 -1,680 Descending Miami Center
04:07PM 27.9653 -83.4142 103° East 425 489 12,900 -1,620 Descending Miami Center
04:08PM 27.9397 -83.2883 103° East 414 476 11,300 -1,500 Descending Miami Center
04:09PM 27.9203 -83.1628 100° East 409 471 10,000 -660 Descending Miami Center
04:10PM 27.9628 -83.0478 67° East 377 434 10,000 -240 Level Miami Center
04:11PM 28.0133 -82.9375 63° Northeast 377 434 9,600 -900 Descending Miami Center
04:12PM 28.0500 -82.8500 65° Northeast 318 366 8,400 -1,440 Descending Tampa TRACON
04:13PM 28.0667 -82.7500 79° East 311 358 6,700 -1,500 Descending Tampa TRACON
04:14PM 28.0333 -82.6667 114° Southeast 292 336 5,200 -900 Descending Tampa TRACON
04:15PM 27.9833 -82.6167 139° Southeast 254 292 5,000 -840 Descending Tampa TRACON
04:16PM 27.9167 -82.6167 180° South 251 289 3,600 -1,080 Descending Tampa TRACON
04:17PM 27.8500 -82.6167 180° South 233 268 3,100 -600 Descending Tampa TRACON
04:18PM 27.8667 -82.5500 74° East 184 212 2,600 -840 Descending Tampa TRACON
04:19PM 27.9000 -82.5500 360° North 142 163 1,500 -1,020 Descending Tampa TRACON
04:20PM 27.9500 -82.5500 360° North 138 159 600 -900 Descending Tampa TRACON
04:22PM 27.9667 -82.5167 19° North  Level FlightAware Approximate
04:29PM 27.9755 -82.5332 19° North  Level Estimated